createdAt,value
2022-10-16T00:01:46.633Z,9.54
2022-10-16T00:04:15.038Z,9.56
2022-10-16T00:06:43.225Z,9.59
2022-10-16T00:09:11.978Z,9.64
2022-10-16T00:11:41.775Z,9.70
2022-10-16T00:14:15.790Z,9.78
2022-10-16T00:16:44.126Z,9.85
2022-10-16T00:19:13.635Z,9.92
2022-10-16T00:21:41.849Z,10.00
2022-10-16T00:24:11.397Z,10.08
2022-10-16T00:26:41.543Z,10.17
2022-10-16T00:29:10.922Z,10.26
2022-10-16T00:31:39.174Z,10.36
2022-10-16T00:34:07.364Z,10.46
2022-10-16T00:36:35.546Z,10.55
2022-10-16T00:39:04.765Z,10.67
2022-10-16T00:41:33.564Z,10.79
2022-10-16T00:44:22.871Z,10.93
2022-10-16T00:46:51.832Z,11.08
2022-10-16T00:49:21.994Z,11.21
2022-10-16T00:51:55.211Z,11.35
2022-10-16T00:54:32.585Z,11.47
2022-10-16T00:57:04.142Z,11.59
2022-10-16T00:59:37.121Z,11.69
2022-10-16T01:02:07.758Z,11.78
2022-10-16T01:04:41.665Z,11.86
2022-10-16T01:07:31.474Z,11.93
2022-10-16T01:10:27.987Z,12.01
2022-10-16T01:13:02.403Z,12.09
2022-10-16T01:15:58.919Z,12.16
2022-10-16T01:18:40.933Z,12.24
2022-10-16T01:21:23.334Z,12.30
2022-10-16T01:24:27.450Z,12.34
2022-10-16T01:27:20.418Z,12.39
2022-10-16T01:30:02.106Z,12.44
2022-10-16T01:32:30.498Z,12.49
2022-10-16T01:35:01.358Z,12.53
2022-10-16T01:37:50.060Z,12.57
2022-10-16T01:40:22.429Z,12.60
2022-10-16T01:43:06.484Z,12.63
2022-10-16T01:45:37.024Z,12.67
2022-10-16T01:48:10.807Z,12.73
2022-10-16T01:50:42.987Z,12.76
2022-10-16T01:53:14.867Z,12.78
2022-10-16T01:55:47.330Z,12.81
2022-10-16T01:58:16.279Z,12.82
2022-10-16T02:00:48.048Z,12.83
2022-10-16T02:03:21.056Z,12.85
2022-10-16T02:05:57.742Z,12.86
2022-10-16T02:08:29.780Z,12.89
2022-10-16T02:11:01.390Z,12.91
2022-10-16T02:13:39.189Z,12.93
2022-10-16T02:16:08.738Z,12.94
2022-10-16T02:18:37.036Z,12.94
2022-10-16T02:21:24.763Z,12.95
2022-10-16T02:24:14.018Z,12.97
2022-10-16T02:26:52.945Z,13.00
2022-10-16T02:29:25.994Z,13.02
2022-10-16T02:32:00.163Z,13.02
2022-10-16T02:34:31.800Z,13.03
2022-10-16T02:37:03.234Z,13.03
2022-10-16T02:39:32.251Z,13.02
2022-10-16T02:42:00.467Z,13.03
2022-10-16T02:44:28.613Z,13.04
2022-10-16T02:46:56.849Z,13.06
2022-10-16T02:49:25.003Z,13.06
2022-10-16T02:51:53.105Z,13.06
2022-10-16T02:54:21.437Z,13.07
2022-10-16T02:56:49.567Z,13.06
2022-10-16T02:59:17.734Z,13.06
2022-10-16T03:01:45.913Z,13.06
2022-10-16T03:04:14.068Z,13.08
2022-10-16T03:06:42.263Z,13.09
2022-10-16T03:09:10.522Z,13.10
2022-10-16T03:11:38.681Z,13.10
2022-10-16T03:14:06.899Z,13.10
2022-10-16T03:16:35.166Z,13.09
2022-10-16T03:19:03.413Z,13.10
2022-10-16T03:21:31.637Z,13.11
2022-10-16T03:23:59.859Z,13.12
2022-10-16T03:26:28.083Z,13.13
2022-10-16T03:28:56.309Z,13.13
2022-10-16T03:31:24.598Z,13.13
2022-10-16T03:33:52.713Z,13.14
2022-10-16T03:36:20.863Z,13.14
2022-10-16T03:38:49.072Z,13.16
2022-10-16T03:41:17.243Z,13.18
2022-10-16T03:43:45.414Z,13.21
2022-10-16T03:46:13.578Z,13.22
2022-10-16T03:48:41.880Z,13.23
2022-10-16T03:51:10.358Z,13.23
2022-10-16T03:53:38.593Z,13.23
2022-10-16T03:56:07.199Z,13.24
2022-10-16T03:58:35.421Z,13.25
2022-10-16T04:01:03.815Z,13.26
2022-10-16T04:03:32.049Z,13.28
2022-10-16T04:06:00.205Z,13.30
2022-10-16T04:08:28.478Z,13.31
2022-10-16T04:10:56.649Z,13.32
2022-10-16T04:13:25.015Z,13.32
2022-10-16T04:15:53.268Z,13.33
2022-10-16T04:18:21.410Z,13.35
2022-10-16T04:20:49.503Z,13.38
2022-10-16T04:23:17.838Z,13.40
2022-10-16T04:25:45.947Z,13.41
2022-10-16T04:28:14.093Z,13.41
2022-10-16T04:30:42.303Z,13.41
2022-10-16T04:33:11.173Z,13.41
2022-10-16T04:35:39.564Z,13.41
2022-10-16T04:38:07.829Z,13.42
2022-10-16T04:40:37.853Z,13.43
2022-10-16T04:43:06.940Z,13.44
2022-10-16T04:45:35.180Z,13.45
2022-10-16T04:48:03.407Z,13.44
2022-10-16T04:50:31.546Z,13.42
2022-10-16T04:53:08.558Z,13.40
2022-10-16T04:55:37.336Z,13.40
2022-10-16T04:58:05.754Z,13.40
2022-10-16T05:00:34.547Z,13.40
2022-10-16T05:03:02.869Z,13.39
2022-10-16T05:05:30.985Z,13.37
2022-10-16T05:07:59.190Z,13.37
2022-10-16T05:10:27.522Z,13.36
2022-10-16T05:12:55.645Z,13.36
2022-10-16T05:15:26.194Z,13.36
2022-10-16T05:17:56.061Z,13.39
2022-10-16T05:20:24.921Z,13.41
2022-10-16T05:22:53.110Z,13.42
2022-10-16T05:25:21.275Z,13.43
2022-10-16T05:27:50.788Z,13.43
2022-10-16T05:30:19.713Z,13.45
2022-10-16T05:32:50.269Z,13.48
2022-10-16T05:35:20.488Z,13.51
2022-10-16T05:37:49.234Z,13.54
2022-10-16T05:40:18.079Z,13.56
2022-10-16T05:42:46.849Z,13.58
2022-10-16T05:45:15.013Z,13.59
2022-10-16T05:47:43.605Z,13.60
2022-10-16T05:50:11.866Z,13.62
2022-10-16T05:52:40.019Z,13.64
2022-10-16T05:55:08.637Z,13.67
2022-10-16T05:57:36.893Z,13.72
2022-10-16T06:00:06.126Z,13.76
2022-10-16T06:02:41.000Z,13.81
2022-10-16T06:05:09.525Z,13.87
2022-10-16T06:07:37.946Z,13.93
2022-10-16T06:10:06.890Z,14.01
2022-10-16T06:12:35.044Z,14.09
2022-10-16T06:15:03.502Z,14.18
2022-10-16T06:17:31.697Z,14.27
2022-10-16T06:19:59.814Z,14.33
2022-10-16T06:22:28.057Z,14.41
2022-10-16T06:24:56.308Z,14.50
2022-10-16T06:27:24.570Z,14.57
2022-10-16T06:29:53.039Z,14.66
2022-10-16T06:32:21.990Z,14.76
2022-10-16T06:34:50.140Z,14.86
2022-10-16T06:37:18.279Z,14.94
2022-10-16T06:39:46.495Z,15.01
2022-10-16T06:42:14.701Z,15.07
2022-10-16T06:44:43.027Z,15.11
2022-10-16T06:47:12.454Z,15.17
2022-10-16T06:49:40.649Z,15.23
2022-10-16T06:52:08.862Z,15.28
2022-10-16T06:54:42.292Z,15.32
2022-10-16T06:57:11.007Z,15.36
2022-10-16T06:59:39.279Z,15.39
2022-10-16T07:02:08.477Z,15.43
2022-10-16T07:04:37.873Z,15.48
2022-10-16T07:07:08.583Z,15.58
2022-10-16T07:09:38.103Z,15.73
2022-10-16T07:12:06.319Z,15.90
2022-10-16T07:14:34.518Z,16.07
2022-10-16T07:17:03.939Z,16.30
2022-10-16T07:19:34.512Z,16.54
2022-10-16T07:22:04.295Z,16.74
2022-10-16T07:24:32.822Z,16.93
2022-10-16T07:27:01.100Z,17.14
2022-10-16T07:29:29.327Z,17.37
2022-10-16T07:31:57.686Z,17.61
2022-10-16T07:34:25.866Z,17.86
2022-10-16T07:36:54.120Z,18.12
2022-10-16T07:39:22.286Z,18.39
2022-10-16T07:41:50.475Z,18.67
2022-10-16T07:44:18.633Z,18.93
2022-10-16T07:46:48.114Z,19.09
2022-10-16T07:49:16.279Z,19.17
2022-10-16T07:51:44.427Z,19.24
2022-10-16T07:54:12.797Z,19.31
2022-10-16T07:56:43.701Z,19.40
2022-10-16T07:59:12.506Z,19.48
2022-10-16T08:01:43.248Z,19.56
2022-10-16T08:04:11.629Z,19.61
2022-10-16T08:06:41.931Z,19.66
2022-10-16T08:09:10.195Z,19.69
2022-10-16T08:11:38.345Z,19.70
2022-10-16T08:14:06.614Z,19.71
2022-10-16T08:16:34.753Z,19.76
2022-10-16T08:19:03.161Z,19.84
2022-10-16T08:21:31.389Z,19.96
2022-10-16T08:24:00.217Z,20.09
2022-10-16T08:26:28.521Z,20.18
2022-10-16T08:28:57.373Z,20.21
2022-10-16T08:31:27.378Z,20.25
2022-10-16T08:33:55.896Z,20.33
2022-10-16T08:36:24.193Z,20.42
2022-10-16T08:38:54.685Z,20.54
2022-10-16T08:41:35.949Z,20.59
2022-10-16T08:44:25.685Z,20.63
2022-10-16T08:47:11.735Z,20.68
2022-10-16T08:49:44.213Z,20.77
2022-10-16T08:52:15.138Z,20.89
2022-10-16T08:54:48.444Z,20.97
2022-10-16T08:57:25.710Z,21.02
2022-10-16T08:59:56.561Z,21.09
2022-10-16T09:02:28.329Z,21.16
2022-10-16T09:05:16.146Z,21.19
2022-10-16T09:10:54.957Z,21.31
2022-10-16T09:14:13.870Z,21.37
2022-10-16T09:16:49.095Z,21.48
2022-10-16T09:19:37.661Z,21.58
2022-10-16T09:22:19.444Z,21.71
2022-10-16T09:24:47.659Z,21.79
2022-10-16T09:27:16.070Z,21.83
2022-10-16T09:29:44.206Z,21.84
2022-10-16T09:32:19.310Z,21.88
2022-10-16T09:34:58.727Z,21.89
2022-10-16T09:37:27.398Z,22.05
2022-10-16T09:39:56.255Z,22.26
2022-10-16T09:42:32.378Z,22.46
2022-10-16T09:45:00.642Z,22.85
2022-10-16T09:47:30.868Z,23.28
2022-10-16T09:50:07.320Z,23.52
2022-10-16T09:52:35.611Z,23.50
2022-10-16T09:55:17.720Z,23.42
2022-10-16T09:57:53.590Z,23.28
2022-10-16T10:00:23.902Z,23.10
2022-10-16T10:05:30.153Z,22.72
2022-10-16T10:08:01.121Z,22.52
2022-10-16T10:10:33.062Z,22.34
2022-10-16T10:13:02.572Z,22.14
2022-10-16T10:15:42.621Z,21.97
2022-10-16T10:18:23.139Z,21.82
2022-10-16T10:23:35.978Z,21.61
2022-10-16T10:26:06.929Z,21.55
2022-10-16T10:28:54.515Z,21.49
2022-10-16T10:31:29.603Z,21.43
2022-10-16T10:34:25.243Z,21.35
2022-10-16T10:37:24.235Z,21.27
2022-10-16T10:40:21.546Z,21.16
2022-10-16T10:43:05.994Z,21.06
2022-10-16T10:45:44.350Z,20.96
2022-10-16T10:48:12.543Z,20.88
2022-10-16T10:50:50.482Z,20.83
2022-10-16T10:53:30.827Z,20.78
2022-10-16T10:56:26.325Z,20.74
2022-10-16T10:59:13.539Z,20.73
2022-10-16T11:01:56.839Z,20.73
2022-10-16T11:04:56.928Z,20.74
2022-10-16T11:07:32.371Z,20.75
2022-10-16T11:10:16.421Z,20.75
2022-10-16T11:12:53.949Z,20.76
2022-10-16T11:15:32.270Z,20.79
2022-10-16T11:18:08.087Z,20.82
2022-10-16T11:20:43.902Z,20.83
2022-10-16T11:23:19.632Z,20.83
2022-10-16T11:25:51.275Z,20.82
2022-10-16T11:28:49.387Z,20.81
2022-10-16T11:31:24.794Z,20.82
2022-10-16T11:33:58.739Z,20.84
2022-10-16T11:36:34.343Z,20.85
2022-10-16T11:39:17.581Z,20.87
2022-10-16T11:41:51.757Z,20.89
2022-10-16T11:44:57.487Z,20.90
2022-10-16T11:48:05.501Z,20.90
2022-10-16T11:51:04.371Z,20.88
2022-10-16T11:54:00.803Z,20.86
2022-10-16T11:56:32.700Z,20.87
2022-10-16T11:59:08.866Z,20.90
2022-10-16T12:01:44.343Z,20.99
2022-10-16T12:04:34.002Z,21.09
2022-10-16T12:07:15.721Z,21.21
2022-10-16T12:09:44.186Z,21.29
2022-10-16T12:12:31.458Z,21.35
2022-10-16T12:15:40.888Z,21.42
2022-10-16T12:18:25.821Z,21.54
2022-10-16T12:21:07.904Z,21.64
2022-10-16T12:23:48.998Z,21.72
2022-10-16T12:26:29.897Z,21.80
2022-10-16T12:29:16.064Z,21.88
2022-10-16T12:31:57.733Z,21.90
2022-10-16T12:34:35.704Z,21.90
2022-10-16T12:37:24.618Z,21.89
2022-10-16T12:39:57.822Z,21.87
2022-10-16T12:42:29.420Z,21.85
2022-10-16T12:44:58.257Z,21.77
2022-10-16T12:47:32.593Z,21.67
2022-10-16T12:50:03.200Z,21.58
2022-10-16T12:52:40.393Z,21.50
2022-10-16T12:55:17.265Z,21.42
2022-10-16T12:58:17.472Z,21.33
2022-10-16T13:00:59.539Z,21.22
2022-10-16T13:04:00.528Z,21.12
2022-10-16T13:06:47.461Z,21.03
2022-10-16T13:09:50.713Z,20.97
2022-10-16T13:12:18.846Z,20.91
2022-10-16T13:15:03.869Z,20.89
2022-10-16T13:17:44.393Z,20.92
2022-10-16T13:20:37.210Z,20.97
2022-10-16T13:23:08.226Z,21.03
2022-10-16T13:25:52.462Z,21.05
2022-10-16T13:28:24.281Z,21.07
2022-10-16T13:30:55.826Z,21.07
2022-10-16T13:33:40.878Z,21.05
2022-10-16T13:36:22.582Z,20.99
2022-10-16T13:39:22.717Z,20.92
2022-10-16T13:42:09.087Z,20.81
2022-10-16T13:44:47.207Z,20.69
2022-10-16T13:47:20.886Z,20.62
2022-10-16T13:50:05.437Z,20.59
2022-10-16T13:52:33.881Z,20.59
2022-10-16T13:55:04.353Z,20.59
2022-10-16T13:57:32.530Z,20.59
2022-10-16T14:00:00.865Z,20.58
2022-10-16T14:02:40.435Z,20.56
2022-10-16T14:05:15.154Z,20.54
2022-10-16T14:07:43.972Z,20.54
2022-10-16T14:10:24.067Z,20.53
2022-10-16T14:13:18.177Z,20.53
2022-10-16T14:15:52.602Z,20.56
2022-10-16T14:18:33.283Z,20.59
2022-10-16T14:21:08.235Z,20.58
2022-10-16T14:23:42.007Z,20.59
2022-10-16T14:26:10.161Z,20.57
2022-10-16T14:28:41.637Z,20.53
2022-10-16T14:31:37.550Z,20.51
2022-10-16T14:34:25.570Z,20.47
2022-10-16T14:36:53.870Z,20.40
2022-10-16T14:39:25.025Z,20.34
2022-10-16T14:41:56.874Z,20.28
2022-10-16T14:44:34.074Z,20.23
2022-10-16T14:47:17.162Z,20.17
2022-10-16T14:49:45.366Z,20.10
2022-10-16T14:52:15.943Z,20.04
2022-10-16T14:54:44.135Z,20.00
2022-10-16T14:57:19.625Z,19.96
2022-10-16T14:59:49.977Z,19.92
2022-10-16T15:02:32.064Z,19.89
2022-10-16T15:05:17.318Z,19.86
2022-10-16T15:07:46.925Z,19.83
2022-10-16T15:10:16.035Z,19.79
2022-10-16T15:12:44.690Z,19.74
2022-10-16T15:15:25.205Z,19.70
2022-10-16T15:17:58.175Z,19.66
2022-10-16T15:20:37.861Z,19.61
2022-10-16T15:23:13.981Z,19.55
2022-10-16T15:25:56.233Z,19.46
2022-10-16T15:28:27.023Z,19.35
2022-10-16T15:30:57.449Z,19.23
2022-10-16T15:33:29.957Z,19.10
2022-10-16T15:35:58.238Z,18.97
2022-10-16T15:38:28.756Z,18.84
2022-10-16T15:40:58.222Z,18.69
2022-10-16T15:43:26.603Z,18.56
2022-10-16T15:46:06.299Z,18.44
2022-10-16T15:48:34.571Z,18.31
2022-10-16T15:51:07.599Z,18.19
2022-10-16T15:53:36.846Z,18.08
2022-10-16T15:56:10.365Z,17.97
2022-10-16T15:58:40.009Z,17.85
2022-10-16T16:01:10.917Z,17.74
2022-10-16T16:03:43.156Z,17.64
2022-10-16T16:06:13.331Z,17.53
2022-10-16T16:08:41.477Z,17.39
2022-10-16T16:11:13.168Z,17.25
2022-10-16T16:13:42.710Z,17.13
2022-10-16T16:16:14.896Z,17.03
2022-10-16T16:18:44.312Z,16.93
2022-10-16T16:21:14.042Z,16.83
2022-10-16T16:23:42.182Z,16.71
2022-10-16T16:26:16.476Z,16.59
2022-10-16T16:28:44.873Z,16.49
2022-10-16T16:31:13.176Z,16.43
2022-10-16T16:33:41.334Z,16.39
2022-10-16T16:36:15.452Z,16.35
2022-10-16T16:38:43.999Z,16.29
2022-10-16T16:41:14.577Z,16.19
2022-10-16T16:43:43.277Z,16.13
2022-10-16T16:46:12.733Z,16.07
2022-10-16T16:48:41.734Z,15.98
2022-10-16T16:51:17.201Z,15.87
2022-10-16T16:53:47.509Z,15.74
2022-10-16T16:56:16.178Z,15.63
2022-10-16T16:58:52.948Z,15.50
2022-10-16T17:01:22.991Z,15.40
2022-10-16T17:03:53.651Z,15.34
2022-10-16T17:06:24.488Z,15.30
2022-10-16T17:08:53.633Z,15.27
2022-10-16T17:11:25.373Z,15.20
2022-10-16T17:13:56.999Z,15.10
2022-10-16T17:16:29.839Z,15.04
2022-10-16T17:19:04.146Z,14.98
2022-10-16T17:21:33.248Z,14.86
2022-10-16T17:24:02.300Z,14.76
2022-10-16T17:26:31.126Z,14.71
2022-10-16T17:29:02.506Z,14.68
2022-10-16T17:31:34.014Z,14.61
2022-10-16T17:34:05.064Z,14.55
2022-10-16T17:36:36.313Z,14.49
2022-10-16T17:39:08.560Z,14.46
2022-10-16T17:41:37.251Z,14.47
2022-10-16T17:44:07.286Z,14.46
2022-10-16T17:46:40.050Z,14.45
2022-10-16T17:49:11.267Z,14.43
2022-10-16T17:51:39.569Z,14.39
2022-10-16T17:54:08.455Z,14.39
2022-10-16T17:56:36.756Z,14.39
2022-10-16T17:59:05.508Z,14.36
2022-10-16T18:01:37.080Z,14.34
2022-10-16T18:04:15.902Z,14.37
2022-10-16T18:06:45.805Z,14.40
2022-10-16T18:09:18.393Z,14.36
2022-10-16T18:11:47.274Z,14.26
2022-10-16T18:14:18.163Z,14.13
2022-10-16T18:16:46.597Z,14.07
2022-10-16T18:19:14.890Z,14.05
2022-10-16T18:21:43.122Z,14.06
2022-10-16T18:24:11.305Z,14.09
2022-10-16T18:26:39.472Z,14.12
2022-10-16T18:29:08.463Z,14.17
2022-10-16T18:31:39.145Z,14.21
2022-10-16T18:34:10.943Z,14.24
2022-10-16T18:36:40.085Z,14.26
2022-10-16T18:39:11.521Z,14.27
2022-10-16T18:41:44.864Z,14.26
2022-10-16T18:44:14.075Z,14.26
2022-10-16T18:46:42.809Z,14.26
2022-10-16T18:49:11.127Z,14.27
2022-10-16T18:51:41.363Z,14.26
2022-10-16T18:54:13.380Z,14.24
2022-10-16T18:56:41.625Z,14.16
2022-10-16T18:59:10.900Z,14.07
2022-10-16T19:01:40.117Z,14.02
2022-10-16T19:04:11.607Z,13.99
2022-10-16T19:06:46.290Z,13.96
2022-10-16T19:09:17.064Z,13.90
2022-10-16T19:11:46.125Z,13.84
2022-10-16T19:14:16.677Z,13.78
2022-10-16T19:16:45.359Z,13.66
2022-10-16T19:19:18.450Z,13.52
2022-10-16T19:21:48.475Z,13.35
2022-10-16T19:24:17.757Z,13.23
2022-10-16T19:26:45.947Z,13.13
2022-10-16T19:29:14.172Z,13.03
2022-10-16T19:31:42.505Z,12.93
2022-10-16T19:34:11.716Z,12.84
2022-10-16T19:36:41.183Z,12.77
2022-10-16T19:39:15.376Z,12.67
2022-10-16T19:41:47.770Z,12.58
2022-10-16T19:44:17.908Z,12.52
2022-10-16T19:46:50.394Z,12.49
2022-10-16T19:49:21.935Z,12.46
2022-10-16T19:51:52.151Z,12.44
2022-10-16T19:54:20.745Z,12.44
2022-10-16T19:56:48.896Z,12.42
2022-10-16T19:59:19.425Z,12.40
2022-10-16T20:01:47.980Z,12.39
2022-10-16T20:04:17.007Z,12.38
2022-10-16T20:06:46.237Z,12.38
2022-10-16T20:09:14.956Z,12.40
2022-10-16T20:11:43.421Z,12.43
2022-10-16T20:14:11.807Z,12.50
2022-10-16T20:16:43.305Z,12.55
2022-10-16T20:19:11.796Z,12.57
2022-10-16T20:21:40.630Z,12.56
2022-10-16T20:24:08.978Z,12.57
2022-10-16T20:26:40.608Z,12.57
2022-10-16T20:29:08.847Z,12.55
2022-10-16T20:31:37.886Z,12.52
2022-10-16T20:34:10.987Z,12.51
2022-10-16T20:36:42.980Z,12.51
2022-10-16T20:39:13.955Z,12.52
2022-10-16T20:41:42.535Z,12.53
2022-10-16T20:44:15.948Z,12.55
2022-10-16T20:46:44.600Z,12.55
2022-10-16T20:49:28.393Z,12.54
2022-10-16T20:52:00.901Z,12.53
2022-10-16T20:54:29.282Z,12.52
2022-10-16T20:56:58.205Z,12.50
2022-10-16T20:59:26.740Z,12.48
2022-10-16T21:01:55.256Z,12.50
2022-10-16T21:04:23.473Z,12.49
2022-10-16T21:06:51.689Z,12.46
2022-10-16T21:09:19.826Z,12.42
2022-10-16T21:11:48.027Z,12.35
2022-10-16T21:14:16.877Z,12.31
2022-10-16T21:16:45.045Z,12.25
2022-10-16T21:19:13.251Z,12.18
2022-10-16T21:21:41.483Z,12.14
2022-10-16T21:24:12.288Z,12.12
2022-10-16T21:26:44.265Z,12.10
2022-10-16T21:29:13.014Z,12.11
2022-10-16T21:31:41.967Z,12.12
2022-10-16T21:34:10.272Z,12.10
2022-10-16T21:36:41.393Z,12.05
2022-10-16T21:39:13.026Z,11.96
2022-10-16T21:41:43.302Z,11.85
2022-10-16T21:44:12.547Z,11.78
2022-10-16T21:46:43.037Z,11.73
2022-10-16T21:49:19.833Z,11.68
2022-10-16T21:51:50.682Z,11.65
2022-10-16T21:54:22.021Z,11.61
2022-10-16T21:56:52.783Z,11.60
2022-10-16T21:59:21.470Z,11.57
2022-10-16T22:01:53.423Z,11.52
2022-10-16T22:04:21.653Z,11.47
2022-10-16T22:06:49.906Z,11.40
2022-10-16T22:09:18.094Z,11.30
2022-10-16T22:11:46.363Z,11.23
2022-10-16T22:14:17.470Z,11.18
2022-10-16T22:16:47.090Z,11.14
2022-10-16T22:19:17.899Z,11.08
2022-10-16T22:21:48.930Z,11.04
2022-10-16T22:24:17.983Z,10.98
2022-10-16T22:26:46.189Z,10.91
2022-10-16T22:29:15.742Z,10.86
2022-10-16T22:31:44.923Z,10.83
2022-10-16T22:34:14.685Z,10.78
2022-10-16T22:36:43.046Z,10.73
2022-10-16T22:39:11.458Z,10.68
2022-10-16T22:41:39.654Z,10.63
2022-10-16T22:44:12.230Z,10.61
2022-10-16T22:46:41.227Z,10.63
2022-10-16T22:49:09.407Z,10.66
2022-10-16T22:51:37.749Z,10.68
2022-10-16T22:54:06.006Z,10.69
2022-10-16T22:56:34.161Z,10.70
2022-10-16T22:59:02.315Z,10.69
2022-10-16T23:01:34.674Z,10.66
2022-10-16T23:04:03.647Z,10.63
2022-10-16T23:06:31.961Z,10.61
2022-10-16T23:09:01.774Z,10.59
2022-10-16T23:11:31.032Z,10.54
2022-10-16T23:13:59.282Z,10.52
2022-10-16T23:16:27.446Z,10.50
2022-10-16T23:18:55.635Z,10.50
2022-10-16T23:21:25.314Z,10.47
2022-10-16T23:23:54.971Z,10.44
2022-10-16T23:26:25.518Z,10.41
2022-10-16T23:28:57.739Z,10.37
2022-10-16T23:31:27.703Z,10.32
2022-10-16T23:33:57.414Z,10.28
2022-10-16T23:36:26.066Z,10.24
2022-10-16T23:38:54.853Z,10.23
2022-10-16T23:41:23.210Z,10.21
2022-10-16T23:43:52.122Z,10.22
2022-10-16T23:46:20.426Z,10.19
2022-10-16T23:48:48.714Z,10.14
2022-10-16T23:51:17.378Z,10.10
2022-10-16T23:53:45.729Z,10.11
2022-10-16T23:56:14.975Z,10.11
2022-10-16T23:58:43.137Z,10.10
